createdAt,value
2017-12-29T00:00:05.022Z,960
2017-12-29T00:15:04.733Z,960.1
2017-12-29T00:30:04.619Z,960.05
2017-12-29T00:45:05.241Z,960.24
2017-12-29T01:00:05.022Z,960.42
2017-12-29T01:15:04.798Z,960.67
2017-12-29T01:30:04.896Z,960.75
2017-12-29T01:45:05.911Z,961.2
2017-12-29T02:00:05.096Z,961.23
2017-12-29T02:15:06.086Z,960.96
2017-12-29T02:30:08.051Z,961.28
2017-12-29T02:45:04.441Z,961.55
2017-12-29T03:00:04.341Z,954.76
2017-12-29T03:15:10.243Z,955.43
2017-12-29T03:30:04.840Z,955.8
2017-12-29T03:45:05.177Z,955.88
2017-12-29T04:00:04.649Z,955.88
2017-12-29T04:15:06.130Z,955.93
2017-12-29T04:30:04.711Z,956.17
2017-12-29T04:45:05.074Z,956.25
2017-12-29T05:00:04.891Z,956.49
2017-12-29T05:15:08.497Z,956.94
2017-12-29T05:30:04.827Z,957.05
2017-12-29T05:45:08.682Z,957.15
2017-12-29T06:00:05.360Z,956.44
2017-12-29T06:15:04.790Z,956.89
2017-12-29T06:30:04.593Z,957.26
2017-12-29T06:45:04.977Z,957.21
2017-12-29T07:00:04.881Z,957.44
2017-12-29T07:15:04.607Z,957.42
2017-12-29T07:30:05.948Z,957.63
2017-12-29T07:45:04.446Z,957.15
2017-12-29T08:00:04.954Z,957.15
2017-12-29T08:15:05.238Z,955.83
2017-12-29T08:30:05.099Z,955.53
2017-12-29T08:45:04.811Z,960.96
2017-12-29T09:00:06.571Z,959.62
2017-12-29T09:15:08.485Z,960.56
2017-12-29T09:30:05.209Z,960.8
2017-12-29T09:45:04.850Z,960.96
2017-12-29T10:00:05.356Z,960.8
2017-12-29T10:15:05.412Z,960.34
2017-12-29T10:30:04.549Z,960.16
2017-12-29T10:45:04.517Z,960.42
2017-12-29T11:00:04.821Z,960.05
2017-12-29T11:15:06.396Z,959.51
2017-12-29T11:30:05.719Z,959.38
2017-12-29T11:45:21.320Z,958.77
2017-12-29T12:00:04.932Z,958.12
2017-12-29T12:15:04.608Z,957.94
2017-12-29T12:30:04.721Z,956.7
2017-12-29T12:45:05.259Z,956.14
2017-12-29T13:00:05.295Z,956.06
2017-12-29T13:15:05.101Z,955.71
2017-12-29T13:30:05.189Z,956.01
2017-12-29T13:45:05.628Z,955.07
2017-12-29T14:00:05.476Z,955.34
2017-12-29T14:15:04.979Z,955.21
2017-12-29T14:30:05.139Z,955.21
2017-12-29T14:45:04.737Z,955.74
2017-12-29T15:00:05.127Z,955.26
2017-12-29T15:15:06.509Z,954.99
2017-12-29T15:30:08.425Z,955.77
2017-12-29T15:45:05.148Z,955.82
2017-12-29T16:00:08.050Z,955.47
2017-12-29T16:15:04.744Z,955.96
2017-12-29T16:30:06.271Z,955.53
2017-12-29T16:45:04.891Z,955.5
2017-12-29T17:00:05.787Z,954.97
2017-12-29T17:15:04.866Z,955.37
2017-12-29T17:30:04.829Z,954.91
2017-12-29T17:45:04.921Z,954.64
2017-12-29T18:00:05.736Z,954.7
2017-12-29T18:15:05.621Z,954.75
2017-12-29T18:30:05.780Z,953.68
2017-12-29T18:45:06.556Z,953.36
2017-12-29T19:00:04.979Z,953.76
2017-12-29T19:15:06.441Z,954.89
2017-12-29T19:30:05.136Z,955.07
2017-12-29T19:45:05.074Z,955.66
2017-12-29T20:00:04.491Z,956.46
2017-12-29T20:15:04.898Z,957
2017-12-29T20:30:04.537Z,956.09
2017-12-29T20:45:04.542Z,955.02
2017-12-29T21:00:05.023Z,954.86
2017-12-29T21:15:07.675Z,954.86
2017-12-29T21:30:05.372Z,955.07
2017-12-29T21:45:05.289Z,956.04
2017-12-29T22:00:10.194Z,956.28
2017-12-29T22:15:04.699Z,956.44
2017-12-29T22:30:05.904Z,956.46
2017-12-29T22:45:08.423Z,956.44
2017-12-29T23:00:24.035Z,956.6
2017-12-29T23:15:04.947Z,956.73
2017-12-29T23:30:06.230Z,956.65
2017-12-29T23:45:11.859Z,956.76
